createdAt,value
2018-12-16T00:00:57.390Z,97376.20
2018-12-16T00:03:26.688Z,97373.47
2018-12-16T00:05:55.672Z,97362.20
2018-12-16T00:08:24.578Z,97351.36
2018-12-16T00:10:53.591Z,97337.70
2018-12-16T00:13:22.568Z,97328.66
2018-12-16T00:15:51.444Z,97318.23
2018-12-16T00:18:20.357Z,97329.66
2018-12-16T00:20:49.242Z,97318.75
2018-12-16T00:23:18.156Z,97312.87
2018-12-16T00:25:47.025Z,97310.94
2018-12-16T00:28:15.931Z,97304.13
2018-12-16T00:30:44.804Z,97310.70
2018-12-16T00:33:14.119Z,97312.10
2018-12-16T00:35:43.009Z,97301.86
2018-12-16T00:38:11.884Z,97295.23
2018-12-16T00:40:40.815Z,97303.13
2018-12-16T00:43:09.635Z,97314.65
2018-12-16T00:45:38.517Z,97312.55
2018-12-16T00:48:07.366Z,97314.67
2018-12-16T00:50:36.227Z,97313.19
2018-12-16T00:53:05.392Z,97310.98
2018-12-16T00:55:34.580Z,97305.80
2018-12-16T00:58:03.884Z,97295.37
2018-12-16T01:00:33.198Z,97300.77
2018-12-16T01:03:02.817Z,97299.08
2018-12-16T01:05:32.098Z,97303.53
2018-12-16T01:08:00.989Z,97304.91
2018-12-16T01:10:30.282Z,97319.86
2018-12-16T01:12:59.885Z,97314.47
2018-12-16T01:15:28.758Z,97303.62
2018-12-16T01:17:57.627Z,97305.41
2018-12-16T01:20:26.926Z,97297.54
2018-12-16T01:22:56.118Z,97270.94
2018-12-16T01:25:25.270Z,97248.00
2018-12-16T01:27:54.885Z,97239.73
2018-12-16T01:30:24.130Z,97225.09
2018-12-16T01:32:53.014Z,97223.70
2018-12-16T01:35:22.121Z,97222.86
2018-12-16T01:37:50.992Z,97210.92
2018-12-16T01:40:19.928Z,97194.88
2018-12-16T01:42:48.834Z,97185.47
2018-12-16T01:45:17.782Z,97183.61
2018-12-16T01:47:46.671Z,97186.59
2018-12-16T01:50:15.555Z,97180.80
2018-12-16T01:52:49.946Z,97179.95
2018-12-16T01:55:15.326Z,97171.39
2018-12-16T01:57:44.246Z,97166.06
2018-12-16T02:00:13.515Z,97171.56
2018-12-16T02:02:42.639Z,97158.14
2018-12-16T02:05:11.965Z,97158.80
2018-12-16T02:07:42.153Z,97154.12
2018-12-16T02:10:11.497Z,97151.23
2018-12-16T02:12:40.498Z,97158.53
2018-12-16T02:15:09.822Z,97162.08
2018-12-16T02:17:38.848Z,97168.41
2018-12-16T02:20:08.196Z,97164.86
2018-12-16T02:22:37.096Z,97166.08
2018-12-16T02:25:07.718Z,97161.88
2018-12-16T02:27:36.649Z,97163.83
2018-12-16T02:30:08.213Z,97171.94
2018-12-16T02:32:37.165Z,97173.43
2018-12-16T02:35:13.524Z,97182.23
2018-12-16T02:37:42.417Z,97178.88
2018-12-16T02:40:11.299Z,97172.91
2018-12-16T02:42:40.167Z,97171.61
2018-12-16T02:45:09.751Z,97164.70
2018-12-16T02:47:38.668Z,97171.98
2018-12-16T02:50:08.339Z,97161.91
2018-12-16T02:52:37.210Z,97162.81
2018-12-16T02:55:06.706Z,97158.98
2018-12-16T02:57:36.008Z,97145.94
2018-12-16T03:00:05.707Z,97162.01
2018-12-16T03:02:35.215Z,97158.66
2018-12-16T03:05:04.509Z,97159.13
2018-12-16T03:07:33.413Z,97166.48
2018-12-16T03:10:02.596Z,97160.89
2018-12-16T03:12:31.592Z,97147.38
2018-12-16T03:15:00.516Z,97149.98
2018-12-16T03:17:29.584Z,97141.80
2018-12-16T03:19:58.436Z,97134.52
2018-12-16T03:22:27.339Z,97135.96
2018-12-16T03:24:56.201Z,97127.76
2018-12-16T03:27:25.051Z,97126.97
2018-12-16T03:29:54.355Z,97126.05
2018-12-16T03:32:23.127Z,97120.16
2018-12-16T03:34:52.244Z,97125.91
2018-12-16T03:37:21.153Z,97128.19
2018-12-16T03:39:49.999Z,97126.14
2018-12-16T03:42:18.882Z,97126.97
2018-12-16T03:44:48.181Z,97125.84
2018-12-16T03:47:17.088Z,97120.55
2018-12-16T03:49:45.952Z,97113.84
2018-12-16T03:52:14.873Z,97101.73
2018-12-16T03:54:43.765Z,97088.05
2018-12-16T03:57:12.654Z,97083.11
2018-12-16T03:59:41.556Z,97076.73
2018-12-16T04:02:10.653Z,97068.49
2018-12-16T04:04:39.538Z,97066.35
2018-12-16T04:07:08.839Z,97052.70
2018-12-16T04:09:38.142Z,97063.08
2018-12-16T04:12:07.036Z,97059.95
2018-12-16T04:14:35.947Z,97062.71
2018-12-16T04:17:05.249Z,97055.58
2018-12-16T04:19:34.122Z,97059.97
2018-12-16T04:22:03.213Z,97058.13
2018-12-16T04:24:32.108Z,97060.75
2018-12-16T04:27:00.990Z,97080.77
2018-12-16T04:29:29.877Z,97074.52
2018-12-16T04:31:58.761Z,97073.77
2018-12-16T04:34:27.663Z,97066.06
2018-12-16T04:36:56.768Z,97063.36
2018-12-16T04:39:25.812Z,97060.89
2018-12-16T04:41:55.104Z,97057.34
2018-12-16T04:44:23.955Z,97060.33
2018-12-16T04:46:52.847Z,97059.34
2018-12-16T04:49:21.720Z,97068.75
2018-12-16T04:51:50.614Z,97054.20
2018-12-16T04:54:19.497Z,97040.62
2018-12-16T04:56:48.400Z,97040.09
2018-12-16T04:59:17.279Z,97032.73
2018-12-16T05:01:46.126Z,97045.31
2018-12-16T05:04:15.418Z,97043.53
2018-12-16T05:06:44.274Z,97033.70
2018-12-16T05:09:13.233Z,97031.86
2018-12-16T05:11:42.487Z,97023.30
2018-12-16T05:14:11.428Z,97020.63
2018-12-16T05:16:40.279Z,97020.70
2018-12-16T05:19:09.165Z,97021.65
2018-12-16T05:21:38.475Z,97028.36
2018-12-16T05:24:07.592Z,97031.61
2018-12-16T05:26:36.483Z,97037.92
2018-12-16T05:29:05.309Z,97022.35
2018-12-16T05:31:34.592Z,97019.53
2018-12-16T05:34:03.477Z,97016.73
2018-12-16T05:36:32.327Z,96998.41
2018-12-16T05:39:01.201Z,97002.96
2018-12-16T05:41:30.315Z,97005.37
2018-12-16T05:43:59.176Z,96996.58
2018-12-16T05:46:28.043Z,97003.00
2018-12-16T05:48:57.287Z,96992.56
2018-12-16T05:51:26.155Z,96997.25
2018-12-16T05:53:55.020Z,97008.89
2018-12-16T05:56:23.912Z,97008.61
2018-12-16T05:58:52.784Z,97011.48
2018-12-16T06:01:21.715Z,97005.91
2018-12-16T06:03:50.586Z,97000.47
2018-12-16T06:06:19.421Z,96997.04
2018-12-16T06:08:48.261Z,96997.81
2018-12-16T06:11:17.092Z,97005.64
2018-12-16T06:13:45.957Z,97004.89
2018-12-16T06:16:14.959Z,96995.05
2018-12-16T06:18:43.841Z,97001.74
2018-12-16T06:21:12.756Z,96996.88
2018-12-16T06:23:41.612Z,96993.44
2018-12-16T06:26:10.493Z,96993.34
2018-12-16T06:28:39.354Z,96991.28
2018-12-16T06:31:08.264Z,96988.48
2018-12-16T06:33:37.227Z,96980.30
2018-12-16T06:36:06.402Z,96979.35
2018-12-16T06:38:35.292Z,96970.27
2018-12-16T06:41:04.500Z,96962.43
2018-12-16T06:43:33.373Z,96972.23
2018-12-16T06:46:02.271Z,96975.76
2018-12-16T06:48:31.162Z,96982.50
2018-12-16T06:51:00.028Z,96984.63
2018-12-16T06:53:28.910Z,96985.41
2018-12-16T06:55:57.823Z,96984.92
2018-12-16T06:58:27.625Z,96993.90
2018-12-16T07:00:56.515Z,97003.13
2018-12-16T07:03:25.404Z,97007.61
2018-12-16T07:05:54.292Z,96995.48
2018-12-16T07:08:23.160Z,96994.64
2018-12-16T07:10:52.036Z,96997.39
2018-12-16T07:13:21.129Z,97001.47
2018-12-16T07:15:49.997Z,97008.02
2018-12-16T07:18:19.119Z,96993.20
2018-12-16T07:20:48.003Z,96999.86
2018-12-16T07:23:16.885Z,97000.48
2018-12-16T07:25:46.026Z,96996.41
2018-12-16T07:28:16.568Z,97000.70
2018-12-16T07:30:46.257Z,96988.69
2018-12-16T07:33:17.235Z,96994.06
2018-12-16T07:35:46.522Z,96999.86
2018-12-16T07:38:15.393Z,96997.62
2018-12-16T07:40:44.470Z,97006.00
2018-12-16T07:43:13.636Z,97011.88
2018-12-16T07:45:43.139Z,97008.44
2018-12-16T07:48:12.026Z,96999.13
2018-12-16T07:50:41.228Z,96996.72
2018-12-16T07:53:10.121Z,96987.77
2018-12-16T07:55:39.444Z,96977.69
2018-12-16T07:58:08.904Z,96978.80
2018-12-16T08:00:38.308Z,96969.69
2018-12-16T08:03:07.472Z,96969.93
2018-12-16T08:05:36.373Z,96970.45
2018-12-16T08:08:05.260Z,96955.98
2018-12-16T08:10:34.211Z,96971.48
2018-12-16T08:13:03.203Z,96973.77
2018-12-16T08:15:32.089Z,96967.67
2018-12-16T08:18:00.993Z,96973.08
2018-12-16T08:20:30.164Z,96988.77
2018-12-16T08:22:59.864Z,96979.72
2018-12-16T08:25:28.766Z,96988.55
2018-12-16T08:27:58.430Z,96990.70
2018-12-16T08:30:27.604Z,96996.79
2018-12-16T08:32:56.440Z,96991.57
2018-12-16T08:35:25.323Z,96990.09
2018-12-16T08:37:54.217Z,96990.02
2018-12-16T08:40:23.130Z,96989.60
2018-12-16T08:42:52.083Z,96984.03
2018-12-16T08:45:21.069Z,96982.63
2018-12-16T08:47:50.039Z,96981.45
2018-12-16T08:50:18.968Z,96986.77
2018-12-16T08:52:47.916Z,96990.07
2018-12-16T08:55:16.786Z,96991.09
2018-12-16T08:57:45.707Z,96989.25
2018-12-16T09:00:14.588Z,96993.79
2018-12-16T09:02:43.494Z,97001.46
2018-12-16T09:05:12.350Z,97000.18
2018-12-16T09:07:41.283Z,96999.69
2018-12-16T09:10:11.157Z,97012.39
2018-12-16T09:12:40.227Z,96997.36
2018-12-16T09:15:09.487Z,96983.09
2018-12-16T09:17:38.395Z,96978.34
2018-12-16T09:20:07.677Z,96967.50
2018-12-16T09:22:36.568Z,96963.88
2018-12-16T09:25:05.922Z,96980.86
2018-12-16T09:27:34.831Z,96979.67
2018-12-16T09:30:04.205Z,96968.39
2018-12-16T09:32:33.043Z,96969.30
2018-12-16T09:35:01.939Z,96971.80
2018-12-16T09:37:30.819Z,96971.38
2018-12-16T09:39:59.706Z,96972.22
2018-12-16T09:42:28.555Z,96969.77
2018-12-16T09:44:57.735Z,96968.58
2018-12-16T09:47:26.956Z,96969.30
2018-12-16T09:49:55.935Z,96968.66
2018-12-16T09:52:24.826Z,96974.64
2018-12-16T09:54:53.758Z,96968.38
2018-12-16T09:57:22.664Z,96964.12
2018-12-16T09:59:51.548Z,96966.02
2018-12-16T10:02:20.656Z,96964.12
2018-12-16T10:04:49.537Z,96970.28
2018-12-16T10:07:18.473Z,96972.36
2018-12-16T10:09:47.331Z,96969.11
2018-12-16T10:12:16.234Z,96967.22
2018-12-16T10:14:45.113Z,96970.13
2018-12-16T10:17:14.284Z,96961.36
2018-12-16T10:19:43.221Z,96961.83
2018-12-16T10:22:12.089Z,96968.89
2018-12-16T10:24:41.140Z,96965.84
2018-12-16T10:27:10.184Z,96964.73
2018-12-16T10:29:39.359Z,96961.86
2018-12-16T10:32:27.001Z,96973.25
2018-12-16T10:34:55.900Z,96968.20
2018-12-16T10:37:24.895Z,96958.09
2018-12-16T10:39:53.866Z,96939.77
2018-12-16T10:42:23.087Z,96955.31
2018-12-16T10:44:52.391Z,96951.03
2018-12-16T10:47:21.469Z,96951.63
2018-12-16T10:49:50.828Z,96947.66
2018-12-16T10:52:19.877Z,96941.13
2018-12-16T10:54:48.864Z,96942.27
2018-12-16T10:57:17.869Z,96935.95
2018-12-16T10:59:47.123Z,96929.69
2018-12-16T11:02:16.157Z,96925.67
2018-12-16T11:04:45.161Z,96921.92
2018-12-16T11:07:14.030Z,96919.05
2018-12-16T11:09:43.020Z,96911.79
2018-12-16T11:12:12.392Z,96915.73
2018-12-16T11:14:42.132Z,96924.27
2018-12-16T11:17:11.187Z,96924.53
2018-12-16T11:19:40.156Z,96920.52
2018-12-16T11:22:09.113Z,96927.10
2018-12-16T11:24:38.726Z,96918.58
2018-12-16T11:27:07.671Z,96927.61
2018-12-16T11:29:36.531Z,96931.09
2018-12-16T11:32:05.759Z,96931.16
2018-12-16T11:34:35.079Z,96926.14
2018-12-16T11:37:04.325Z,96933.14
2018-12-16T11:39:33.219Z,96933.87
2018-12-16T11:42:02.088Z,96933.33
2018-12-16T11:44:31.029Z,96932.13
2018-12-16T11:46:59.944Z,96936.70
2018-12-16T11:49:29.120Z,96938.16
2018-12-16T11:51:58.376Z,96933.87
2018-12-16T11:54:27.257Z,96929.69
2018-12-16T11:56:56.142Z,96933.30
2018-12-16T11:59:25.022Z,96931.63
2018-12-16T12:01:53.887Z,96934.11
2018-12-16T12:04:23.190Z,96934.04
2018-12-16T12:06:52.129Z,96931.79
2018-12-16T12:09:21.252Z,96929.76
2018-12-16T12:11:50.119Z,96922.16
2018-12-16T12:14:19.219Z,96923.80
2018-12-16T12:16:48.352Z,96912.26
2018-12-16T12:19:17.211Z,96914.34
2018-12-16T12:21:46.094Z,96916.13
2018-12-16T12:24:14.974Z,96893.94
2018-12-16T12:26:44.486Z,96902.65
2018-12-16T12:29:13.387Z,96906.10
2018-12-16T12:31:42.544Z,96914.62
2018-12-16T12:34:11.422Z,96918.02
2018-12-16T12:36:41.049Z,96917.58
2018-12-16T12:39:10.063Z,96912.62
2018-12-16T12:41:39.771Z,96910.74
2018-12-16T12:44:08.634Z,96907.67
2018-12-16T12:46:37.603Z,96909.85
2018-12-16T12:49:06.665Z,96901.72
2018-12-16T12:51:36.520Z,96899.73
2018-12-16T12:54:06.642Z,96900.41
2018-12-16T12:56:35.904Z,96898.63
2018-12-16T12:59:05.943Z,96891.84
2018-12-16T13:01:34.813Z,96891.44
2018-12-16T13:04:03.696Z,96883.91
2018-12-16T13:06:32.678Z,96887.38
2018-12-16T13:09:02.039Z,96901.34
2018-12-16T13:11:30.923Z,96898.80
2018-12-16T13:13:59.808Z,96908.05
2018-12-16T13:16:29.073Z,96906.58
2018-12-16T13:18:58.305Z,96913.80
2018-12-16T13:21:27.198Z,96917.86
2018-12-16T13:23:56.172Z,96911.84
2018-12-16T13:26:25.444Z,96915.87
2018-12-16T13:28:54.757Z,96928.28
2018-12-16T13:31:24.838Z,96918.95
2018-12-16T13:33:53.961Z,96922.59
2018-12-16T13:36:22.846Z,96925.56
2018-12-16T13:38:51.756Z,96920.41
2018-12-16T13:41:20.615Z,96924.00
2018-12-16T13:43:49.874Z,96923.70
2018-12-16T13:46:19.007Z,96923.80
2018-12-16T13:48:48.229Z,96925.56
2018-12-16T13:51:17.113Z,96920.34
2018-12-16T13:53:46.158Z,96924.27
2018-12-16T13:56:15.441Z,96923.59
2018-12-16T13:58:44.312Z,96931.46
2018-12-16T14:01:13.204Z,96925.47
2018-12-16T14:03:42.163Z,96924.90
2018-12-16T14:06:11.024Z,96934.56
2018-12-16T14:08:39.936Z,96937.78
2018-12-16T14:11:08.738Z,96932.67
2018-12-16T14:13:38.091Z,96942.27
2018-12-16T14:16:06.981Z,96945.61
2018-12-16T14:18:35.855Z,96947.72
2018-12-16T14:21:04.791Z,96944.41
2018-12-16T14:23:33.646Z,96944.31
2018-12-16T14:26:02.540Z,96954.19
2018-12-16T14:28:31.485Z,96950.10
2018-12-16T14:31:01.782Z,96954.02
2018-12-16T14:33:30.871Z,96957.09
2018-12-16T14:35:59.836Z,96959.53
2018-12-16T14:38:29.283Z,96962.88
2018-12-16T14:40:59.527Z,96966.89
2018-12-16T14:43:28.729Z,96961.45
2018-12-16T14:45:57.600Z,96967.93
2018-12-16T14:48:26.468Z,96971.18
2018-12-16T14:50:55.345Z,96978.27
2018-12-16T14:53:24.632Z,96982.52
2018-12-16T14:55:55.356Z,96986.37
2018-12-16T14:58:24.386Z,96990.58
2018-12-16T15:00:53.273Z,96986.66
2018-12-16T15:03:22.188Z,96992.59
2018-12-16T15:05:51.076Z,96985.41
2018-12-16T15:08:21.558Z,96993.53
2018-12-16T15:10:50.497Z,97001.36
2018-12-16T15:13:19.336Z,97000.82
2018-12-16T15:15:48.206Z,97001.53
2018-12-16T15:18:17.123Z,96994.30
2018-12-16T15:20:45.968Z,96998.58
2018-12-16T15:23:14.856Z,97003.73
2018-12-16T15:25:43.694Z,97001.19
2018-12-16T15:28:12.592Z,96993.83
2018-12-16T15:30:41.596Z,97000.31
2018-12-16T15:33:10.492Z,96992.03
2018-12-16T15:35:39.367Z,96996.24
2018-12-16T15:38:08.252Z,97000.25
2018-12-16T15:40:37.103Z,97007.14
2018-12-16T15:43:06.304Z,97001.83
2018-12-16T15:45:35.239Z,97010.13
2018-12-16T15:48:04.141Z,97010.50
2018-12-16T15:50:33.024Z,97012.07
2018-12-16T15:53:01.919Z,97026.89
2018-12-16T15:55:30.817Z,97030.24
2018-12-16T15:57:59.780Z,97023.81
2018-12-16T16:00:28.672Z,97027.46
2018-12-16T16:02:57.583Z,97029.35
2018-12-16T16:05:26.496Z,97032.31
2018-12-16T16:07:55.382Z,97026.63
2018-12-16T16:10:24.264Z,97023.38
2018-12-16T16:12:53.553Z,97024.09
2018-12-16T16:15:22.438Z,97021.59
2018-12-16T16:17:51.348Z,97022.98
2018-12-16T16:20:20.235Z,97027.07
2018-12-16T16:22:49.252Z,97033.33
2018-12-16T16:25:18.215Z,97032.48
2018-12-16T16:27:47.304Z,97029.41
2018-12-16T16:30:16.755Z,97044.70
2018-12-16T16:32:45.614Z,97051.13
2018-12-16T16:35:14.573Z,97052.63
2018-12-16T16:37:44.155Z,97049.64
2018-12-16T16:40:13.088Z,97051.33
2018-12-16T16:42:43.153Z,97047.50
2018-12-16T16:45:40.326Z,97056.63
2018-12-16T16:48:09.360Z,97059.16
2018-12-16T16:50:38.280Z,97054.41
2018-12-16T16:53:07.200Z,97057.58
2018-12-16T16:55:36.084Z,97052.91
2018-12-16T16:58:05.014Z,97065.02
2018-12-16T17:00:33.924Z,97061.03
2018-12-16T17:03:02.805Z,97063.81
2018-12-16T17:05:31.722Z,97058.77
2018-12-16T17:08:00.625Z,97057.58
2018-12-16T17:10:29.508Z,97059.16
2018-12-16T17:12:58.838Z,97052.70
2018-12-16T17:15:28.192Z,97056.52
2018-12-16T17:17:57.065Z,97060.37
2018-12-16T17:20:25.959Z,97053.09
2018-12-16T17:22:54.847Z,97053.09
2018-12-16T17:25:23.740Z,97047.69
2018-12-16T17:27:52.633Z,97049.55
2018-12-16T17:30:21.597Z,97048.62
2018-12-16T17:32:50.470Z,97050.39
2018-12-16T17:35:19.770Z,97058.39
2018-12-16T17:37:48.877Z,97050.94
2018-12-16T17:40:17.815Z,97056.05
2018-12-16T17:42:46.753Z,97055.22
2018-12-16T17:45:15.612Z,97067.91
2018-12-16T17:47:44.548Z,97060.37
2018-12-16T17:50:13.442Z,97067.16
2018-12-16T17:52:42.666Z,97071.55
2018-12-16T17:55:11.882Z,97071.84
2018-12-16T17:57:40.818Z,97079.28
2018-12-16T18:00:11.263Z,97080.86
2018-12-16T18:02:40.174Z,97079.19
2018-12-16T18:05:09.083Z,97081.62
2018-12-16T18:07:37.969Z,97085.62
2018-12-16T18:10:07.473Z,97082.09
2018-12-16T18:12:36.368Z,97082.83
2018-12-16T18:15:07.478Z,97089.63
2018-12-16T18:17:36.572Z,97081.05
2018-12-16T18:20:07.561Z,97081.33
2018-12-16T18:22:36.446Z,97081.33
2018-12-16T18:25:06.057Z,97075.93
2018-12-16T18:27:35.051Z,97078.54
2018-12-16T18:30:05.152Z,97079.46
2018-12-16T18:32:34.727Z,97079.67
2018-12-16T18:35:04.399Z,97076.59
2018-12-16T18:37:33.372Z,97080.41
2018-12-16T18:40:02.360Z,97082.34
2018-12-16T18:42:31.280Z,97079.48
2018-12-16T18:45:00.246Z,97074.82
2018-12-16T18:47:29.197Z,97080.48
2018-12-16T18:49:58.596Z,97085.88
2018-12-16T18:52:27.529Z,97086.81
2018-12-16T18:54:56.543Z,97095.34
2018-12-16T18:57:25.412Z,97092.31
2018-12-16T18:59:54.418Z,97091.57
2018-12-16T19:02:23.521Z,97093.09
2018-12-16T19:04:52.519Z,97096.52
2018-12-16T19:07:21.420Z,97094.38
2018-12-16T19:09:50.800Z,97095.09
2018-12-16T19:12:19.724Z,97096.05
2018-12-16T19:14:49.292Z,97093.91
2018-12-16T19:17:18.237Z,97097.19
2018-12-16T19:19:47.552Z,97098.20
2018-12-16T19:22:16.466Z,97102.83
2018-12-16T19:24:45.334Z,97097.19
2018-12-16T19:27:14.253Z,97100.78
2018-12-16T19:29:43.145Z,97101.17
2018-12-16T19:32:12.224Z,97089.81
2018-12-16T19:34:41.145Z,97084.95
2018-12-16T19:37:10.019Z,97096.23
2018-12-16T19:39:38.893Z,97101.84
2018-12-16T19:42:07.755Z,97100.91
2018-12-16T19:44:36.614Z,97111.33
2018-12-16T19:47:05.860Z,97105.02
2018-12-16T19:49:34.758Z,97102.46
2018-12-16T19:52:03.592Z,97104.08
2018-12-16T19:54:43.748Z,97106.20
2018-12-16T19:57:13.112Z,97111.42
2018-12-16T19:59:42.060Z,97112.45
2018-12-16T20:02:10.871Z,97111.81
2018-12-16T20:04:44.792Z,97109.01
2018-12-16T20:07:13.616Z,97110.30
2018-12-16T20:09:42.453Z,97103.39
2018-12-16T20:12:11.299Z,97114.85
2018-12-16T20:14:40.297Z,97114.85
2018-12-16T20:17:09.200Z,97114.66
2018-12-16T20:19:38.176Z,97107.39
2018-12-16T20:22:52.780Z,97115.98
2018-12-16T20:25:21.696Z,97118.52
2018-12-16T20:27:50.622Z,97115.42
2018-12-16T20:30:19.597Z,97113.56
2018-12-16T20:36:09.577Z,97113.77
2018-12-16T20:39:09.569Z,97121.03
2018-12-16T20:41:38.584Z,97118.05
2018-12-16T20:44:07.474Z,97112.63
2018-12-16T20:46:49.221Z,97109.75
2018-12-16T20:49:18.217Z,97116.00
2018-12-16T20:51:47.448Z,97113.27
2018-12-16T20:54:17.002Z,97127.66
2018-12-16T20:56:45.876Z,97133.77
2018-12-16T20:59:14.818Z,97124.66
2018-12-16T21:01:43.714Z,97127.36
2018-12-16T21:04:13.010Z,97123.45
2018-12-16T21:06:41.896Z,97122.22
2018-12-16T21:09:10.915Z,97133.88
2018-12-16T21:11:45.028Z,97143.22
2018-12-16T21:14:19.145Z,97144.98
2018-12-16T21:18:55.408Z,97142.46
2018-12-16T21:21:24.302Z,97140.77
2018-12-16T21:23:53.537Z,97143.20
2018-12-16T21:26:23.823Z,97137.42
2018-12-16T21:28:53.761Z,97133.30
2018-12-16T21:31:30.400Z,97130.62
2018-12-16T21:34:00.630Z,97125.88
2018-12-16T21:36:29.499Z,97127.24
2018-12-16T21:38:58.429Z,97127.14
2018-12-16T21:41:40.904Z,97129.22
2018-12-16T21:44:09.886Z,97127.73
2018-12-16T21:46:44.637Z,97140.69
2018-12-16T21:49:13.484Z,97139.86
2018-12-16T21:51:42.673Z,97140.69
2018-12-16T21:54:16.170Z,97136.67
2018-12-16T21:56:45.750Z,97137.78
2018-12-16T21:59:14.620Z,97139.86
2018-12-16T22:01:43.485Z,97148.05
2018-12-16T22:04:12.483Z,97150.48
2018-12-16T22:06:41.560Z,97144.52
2018-12-16T22:09:11.824Z,97142.64
2018-12-16T22:11:41.023Z,97141.13
2018-12-16T22:14:09.896Z,97148.25
2018-12-16T22:16:40.028Z,97145.98
2018-12-16T22:19:08.879Z,97132.95
2018-12-16T22:21:37.833Z,97137.97
2018-12-16T22:24:08.118Z,97133.30
2018-12-16T22:26:37.247Z,97143.75
2018-12-16T22:29:08.377Z,97147.47
2018-12-16T22:31:37.653Z,97156.24
2018-12-16T22:34:06.545Z,97150.28
2018-12-16T22:36:35.619Z,97144.86
2018-12-16T22:39:06.830Z,97150.83
2018-12-16T22:41:36.101Z,97144.02
2018-12-16T22:44:05.956Z,97143.38
2018-12-16T22:46:35.201Z,97145.98
2018-12-16T22:49:04.453Z,97142.99
2018-12-16T22:51:33.683Z,97142.80
2018-12-16T22:54:02.549Z,97145.23
2018-12-16T22:56:31.354Z,97136.17
2018-12-16T22:59:00.269Z,97137.30
2018-12-16T23:01:29.104Z,97135.63
2018-12-16T23:03:57.932Z,97135.45
2018-12-16T23:06:26.772Z,97136.53
2018-12-16T23:08:55.630Z,97138.23
2018-12-16T23:11:24.434Z,97147.10
2018-12-16T23:13:53.243Z,97148.21
2018-12-16T23:16:22.491Z,97151.17
2018-12-16T23:18:51.708Z,97149.25
2018-12-16T23:21:20.557Z,97155.77
2018-12-16T23:23:49.643Z,97153.81
2018-12-16T23:26:18.480Z,97163.13
2018-12-16T23:28:47.299Z,97155.02
2018-12-16T23:31:16.266Z,97158.09
2018-12-16T23:33:45.164Z,97160.14
2018-12-16T23:36:14.258Z,97156.22
2018-12-16T23:38:43.079Z,97159.20
2018-12-16T23:41:12.324Z,97156.97
2018-12-16T23:43:41.362Z,97160.90
2018-12-16T23:46:10.204Z,97159.95
2018-12-16T23:48:39.021Z,97167.14
2018-12-16T23:51:07.854Z,97164.80
2018-12-16T23:53:36.703Z,97160.41
2018-12-16T23:56:05.890Z,97175.62
2018-12-16T23:58:34.707Z,97175.25
